Time;durP1;ratioP1;P1;durP2;ratioP2;P2;SDS_P1;SDS_P2;PMS_P1;PMS_P2;Temp;Humidity;BMP_temperature;BMP_pressure;BME280_temperature;BME280_humidity;BME280_pressure;Samples;Min_cycle;Max_cycle;Signal;HPM_P1;HPM_P2
2021/08/11 00:01:47;;;;;;;8.23;3.67;;;;;;;;;;5109994;28;20479;-71
2021/08/11 00:04:13;;;;;;;6.53;3.65;;;;;;;;;;5110384;28;20032;-71
2021/08/11 00:06:39;;;;;;;7.88;4.10;;;;;;;;;;5110249;28;20023;-70
2021/08/11 00:09:06;;;;;;;8.65;4.45;;;;;;;;;;5109662;28;20050;-70
2021/08/11 00:11:32;;;;;;;8.52;4.13;;;;;;;;;;5110231;28;20028;-71
2021/08/11 00:13:59;;;;;;;8.32;4.28;;;;;;;;;;5110204;28;20058;-70
2021/08/11 00:16:25;;;;;;;9.52;4.55;;;;;;;;;;5109678;28;20030;-71
2021/08/11 00:18:51;;;;;;;7.53;4.05;;;;;;;;;;5110130;28;20027;-70
2021/08/11 00:21:18;;;;;;;9.20;4.82;;;;;;;;;;5099962;28;20054;-70
2021/08/11 00:23:44;;;;;;;7.13;3.75;;;;;;;;;;5096080;28;20020;-70
2021/08/11 00:27:15;;;;;;;7.50;4.00;;;;;;;;;;5091546;27;20414;-71
2021/08/11 00:29:41;;;;;;;8.15;3.80;;;;;;;;;;5089244;28;20031;-68
2021/08/11 00:32:08;;;;;;;8.80;4.43;;;;;;;;;;5090940;28;20104;-69
2021/08/11 00:35:18;;;;;;;7.03;4.07;;;;;;;;;;5071646;28;20387;-70
2021/08/11 00:37:44;;;;;;;10.15;3.92;;;;;;;;;;5070464;28;20054;-70
2021/08/11 00:40:12;;;;;;;7.70;4.45;;;;;;;;;;5070660;28;20032;-70
2021/08/11 00:42:38;;;;;;;7.35;3.78;;;;;;;;;;5069436;28;20024;-70
2021/08/11 00:45:05;;;;;;;7.35;4.35;;;;;;;;;;5070201;28;20070;-70
2021/08/11 00:47:36;;;;;;;5.78;3.33;;;;;;;;;;5070760;28;20362;-70
2021/08/11 00:50:02;;;;;;;7.65;3.85;;;;;;;;;;5070598;28;20020;-70
2021/08/11 00:52:28;;;;;;;8.82;4.20;;;;;;;;;;5068792;28;20052;-70
2021/08/11 00:54:55;;;;;;;8.43;4.45;;;;;;;;;;5070335;28;20033;-70
2021/08/11 00:57:21;;;;;;;6.38;4.20;;;;;;;;;;5069964;28;20025;-70
2021/08/11 00:59:49;;;;;;;6.90;3.88;;;;;;;;;;5070314;28;20020;-69
2021/08/11 01:02:18;;;;;;;7.30;4.22;;;;;;;;;;5070472;28;20100;-69
2021/08/11 01:04:46;;;;;;;7.20;4.13;;;;;;;;;;5069857;28;20027;-70
2021/08/11 01:07:12;;;;;;;9.30;4.38;;;;;;;;;;5070223;28;20027;-70
2021/08/11 01:09:39;;;;;;;8.98;4.05;;;;;;;;;;5070315;28;20036;-70
2021/08/11 01:12:06;;;;;;;8.25;3.90;;;;;;;;;;5070044;28;20483;-70
2021/08/11 01:14:33;;;;;;;8.75;4.40;;;;;;;;;;5070305;28;20033;-70
2021/08/11 01:17:00;;;;;;;6.78;4.05;;;;;;;;;;5068671;28;20568;-70
2021/08/11 01:19:26;;;;;;;10.02;4.30;;;;;;;;;;5069667;28;20039;-70
2021/08/11 01:21:58;;;;;;;8.90;4.50;;;;;;;;;;5069899;28;20067;-70
2021/08/11 01:24:26;;;;;;;8.80;5.25;;;;;;;;;;5070135;28;20095;-71
2021/08/11 01:26:56;;;;;;;8.23;4.65;;;;;;;;;;5069479;28;20050;-70
2021/08/11 01:29:54;;;;;;;7.45;4.47;;;;;;;;;;5069723;28;20096;-70
2021/08/11 01:32:47;;;;;;;8.95;4.97;;;;;;;;;;5057225;28;20373;-70
2021/08/11 01:35:14;;;;;;;8.03;4.13;;;;;;;;;;5069491;28;20053;-69
2021/08/11 01:37:41;;;;;;;8.90;4.28;;;;;;;;;;5069633;28;20496;-70
2021/08/11 01:40:09;;;;;;;7.38;4.45;;;;;;;;;;5069249;28;20100;-70
2021/08/11 01:42:43;;;;;;;8.13;4.60;;;;;;;;;;5068562;28;20028;-70
2021/08/11 01:45:15;;;;;;;9.70;4.57;;;;;;;;;;5064661;28;20017;-70
2021/08/11 01:47:51;;;;;;;9.82;4.85;;;;;;;;;;5056011;28;20029;-70
2021/08/11 01:50:19;;;;;;;7.15;4.38;;;;;;;;;;5056145;28;20025;-70
2021/08/11 01:52:46;;;;;;;8.02;4.60;;;;;;;;;;5056184;28;20465;-70
2021/08/11 01:55:13;;;;;;;9.30;4.20;;;;;;;;;;5054295;28;20037;-70
2021/08/11 01:57:42;;;;;;;6.63;3.92;;;;;;;;;;5056059;28;20052;-70
2021/08/11 02:00:08;;;;;;;7.15;4.05;;;;;;;;;;5055970;28;20523;-70
2021/08/11 02:02:36;;;;;;;7.28;3.92;;;;;;;;;;5054269;28;20025;-69
2021/08/11 02:05:03;;;;;;;8.65;4.30;;;;;;;;;;5056194;28;20033;-70
2021/08/11 02:07:30;;;;;;;7.15;4.28;;;;;;;;;;5054549;28;20104;-70
2021/08/11 02:09:56;;;;;;;7.15;4.32;;;;;;;;;;5054249;28;20029;-70
2021/08/11 02:13:53;;;;;;;7.32;4.82;;;;;;;;;;5111544;27;20525;-69
2021/08/11 02:16:19;;;;;;;8.35;4.15;;;;;;;;;;5110888;28;20028;-69
2021/08/11 02:19:13;;;;;;;8.32;4.72;;;;;;;;;;5111700;27;20460;-69
2021/08/11 02:21:40;;;;;;;8.23;4.55;;;;;;;;;;5111356;28;20032;-69
2021/08/11 02:24:07;;;;;;;6.97;4.22;;;;;;;;;;5111303;28;20103;-69
2021/08/11 02:27:56;;;;;;;7.93;4.28;;;;;;;;;;5111905;27;20416;-69
2021/08/11 02:30:24;;;;;;;10.27;4.50;;;;;;;;;;5126604;28;20488;-69
2021/08/11 02:32:53;;;;;;;9.02;5.13;;;;;;;;;;5111270;28;20074;-68
2021/08/11 02:35:21;;;;;;;8.50;5.18;;;;;;;;;;5127043;28;20032;-69
2021/08/11 02:37:47;;;;;;;10.18;5.35;;;;;;;;;;5110787;28;20016;-68
2021/08/11 02:40:19;;;;;;;9.25;5.38;;;;;;;;;;5111115;28;20052;-69
2021/08/11 02:42:48;;;;;;;6.73;3.83;;;;;;;;;;5110935;28;20024;-69
2021/08/11 02:45:16;;;;;;;9.38;5.00;;;;;;;;;;5126781;28;20019;-69
2021/08/11 02:47:56;;;;;;;9.20;4.30;;;;;;;;;;5112175;27;20863;-68
2021/08/11 02:50:22;;;;;;;7.88;4.60;;;;;;;;;;5110980;28;20384;-69
2021/08/11 02:52:49;;;;;;;6.28;3.72;;;;;;;;;;5111461;28;20024;-69
2021/08/11 02:57:42;;;;;;;10.48;4.75;;;;;;;;;;5111473;27;20769;-70
2021/08/11 03:01:40;;;;;;;8.63;4.00;;;;;;;;;;5111591;27;20970;-68
2021/08/11 03:04:07;;;;;;;8.48;5.47;;;;;;;;;;5111120;28;20069;-68
2021/08/11 03:06:33;;;;;;;10.27;5.13;;;;;;;;;;5111295;28;20028;-68
2021/08/11 03:09:09;;;;;;;9.93;5.15;;;;;;;;;;5112137;27;20512;-68
2021/08/11 03:11:35;;;;;;;8.60;4.75;;;;;;;;;;5110908;28;20028;-69
2021/08/11 03:14:41;;;;;;;9.18;5.13;;;;;;;;;;5111956;27;20397;-68
2021/08/11 03:17:11;;;;;;;8.38;4.50;;;;;;;;;;5111339;28;20062;-68
2021/08/11 03:20:46;;;;;;;9.57;4.18;;;;;;;;;;5112141;27;20904;-69
2021/08/11 03:23:13;;;;;;;11.88;5.15;;;;;;;;;;5111324;28;20016;-69
2021/08/11 03:25:40;;;;;;;9.55;4.43;;;;;;;;;;5109621;28;20110;-69
2021/08/11 03:28:06;;;;;;;9.48;5.50;;;;;;;;;;5111431;28;20046;-69
2021/08/11 03:30:33;;;;;;;7.55;3.88;;;;;;;;;;5111166;28;20024;-69
2021/08/11 03:32:59;;;;;;;6.95;4.60;;;;;;;;;;5110970;28;20476;-69
2021/08/11 03:35:25;;;;;;;9.35;4.50;;;;;;;;;;5111092;28;20438;-69
2021/08/11 03:37:52;;;;;;;10.05;4.60;;;;;;;;;;5111044;28;20028;-70
2021/08/11 03:40:18;;;;;;;7.95;4.65;;;;;;;;;;5110693;28;20032;-69
2021/08/11 03:43:05;;;;;;;6.57;4.40;;;;;;;;;;5112009;27;20505;-68
2021/08/11 03:45:47;;;;;;;8.82;4.80;;;;;;;;;;5112102;27;20916;-68
2021/08/11 03:48:14;;;;;;;11.10;4.70;;;;;;;;;;5110922;28;20024;-68
2021/08/11 03:50:40;;;;;;;7.80;4.10;;;;;;;;;;5111267;28;20024;-69
2021/08/11 03:53:06;;;;;;;10.38;4.70;;;;;;;;;;5110844;28;20361;-69
2021/08/11 03:55:32;;;;;;;9.85;4.38;;;;;;;;;;5111226;28;20048;-68
2021/08/11 03:58:24;;;;;;;8.50;4.53;;;;;;;;;;5111605;27;20127;-69
2021/08/11 04:00:50;;;;;;;9.93;4.07;;;;;;;;;;5111042;28;20024;-69
2021/08/11 04:06:23;;;;;;;9.38;5.40;;;;;;;;;;5112571;27;20400;-70
2021/08/11 04:08:49;;;;;;;7.70;4.10;;;;;;;;;;5112062;28;20023;-70
2021/08/11 04:11:16;;;;;;;9.57;4.63;;;;;;;;;;5112767;28;20091;-70
2021/08/11 04:16:37;;;;;;;10.65;5.13;;;;;;;;;;5072355;28;20419;-71
2021/08/11 04:19:03;;;;;;;7.43;4.32;;;;;;;;;;5071883;28;20033;-71
2021/08/11 04:21:29;;;;;;;7.15;3.92;;;;;;;;;;5070968;28;20091;-71
2021/08/11 04:23:55;;;;;;;6.43;4.05;;;;;;;;;;5071363;28;20100;-69
2021/08/11 04:26:22;;;;;;;7.18;4.45;;;;;;;;;;5069593;28;20112;-71
2021/08/11 04:28:48;;;;;;;6.82;3.58;;;;;;;;;;5070206;28;20100;-70
2021/08/11 04:31:14;;;;;;;8.35;4.38;;;;;;;;;;5070630;28;20024;-70
2021/08/11 04:33:41;;;;;;;8.35;4.57;;;;;;;;;;5069211;28;20025;-70
2021/08/11 04:36:07;;;;;;;7.40;4.68;;;;;;;;;;5070020;28;20052;-71
2021/08/11 04:38:33;;;;;;;8.32;4.65;;;;;;;;;;5070446;28;20094;-71
2021/08/11 04:40:59;;;;;;;8.63;4.68;;;;;;;;;;5069106;28;20028;-70
2021/08/11 04:43:25;;;;;;;7.30;5.03;;;;;;;;;;5070008;28;20074;-71
2021/08/11 04:45:52;;;;;;;10.00;4.43;;;;;;;;;;5069005;28;20052;-71
2021/08/11 04:48:18;;;;;;;8.13;4.25;;;;;;;;;;5070194;28;20075;-70
2021/08/11 04:50:44;;;;;;;7.13;4.10;;;;;;;;;;5069785;28;20074;-72
2021/08/11 04:53:10;;;;;;;7.18;4.28;;;;;;;;;;5070087;28;20023;-70
2021/08/11 04:55:37;;;;;;;6.47;4.13;;;;;;;;;;5070062;28;20115;-72
2021/08/11 04:58:03;;;;;;;8.18;4.07;;;;;;;;;;5069633;28;20017;-71
2021/08/11 05:00:29;;;;;;;8.32;4.28;;;;;;;;;;5070201;28;20479;-72
2021/08/11 05:02:55;;;;;;;7.53;4.53;;;;;;;;;;5070162;28;20026;-70
2021/08/11 05:05:23;;;;;;;13.52;5.05;;;;;;;;;;5069593;28;20021;-71
2021/08/11 05:07:49;;;;;;;7.30;4.65;;;;;;;;;;5070064;28;20029;-70
2021/08/11 05:10:16;;;;;;;7.32;4.45;;;;;;;;;;5070005;28;20020;-71
2021/08/11 05:12:43;;;;;;;8.52;4.07;;;;;;;;;;5069400;28;20428;-71
2021/08/11 05:15:09;;;;;;;14.63;5.18;;;;;;;;;;5069364;28;20048;-72
2021/08/11 05:17:35;;;;;;;9.10;4.43;;;;;;;;;;5067363;28;20136;-71
2021/08/11 05:20:19;;;;;;;9.60;5.40;;;;;;;;;;5112229;27;20393;-70
2021/08/11 05:22:45;;;;;;;12.07;5.15;;;;;;;;;;5110768;28;20055;-70
2021/08/11 05:25:11;;;;;;;6.95;4.85;;;;;;;;;;5109561;28;20072;-71
2021/08/11 05:27:37;;;;;;;10.48;4.88;;;;;;;;;;5111317;28;20024;-72
2021/08/11 05:31:33;;;;;;;11.68;5.15;;;;;;;;;;5111609;27;20385;-71
2021/08/11 05:33:59;;;;;;;10.85;4.25;;;;;;;;;;5111355;28;20052;-70
2021/08/11 05:36:25;;;;;;;7.75;4.60;;;;;;;;;;5111382;28;20544;-70
2021/08/11 05:38:51;;;;;;;6.80;4.40;;;;;;;;;;5110943;28;20050;-69
2021/08/11 05:41:34;;;;;;;12.88;5.00;;;;;;;;;;5111665;27;20808;-72
2021/08/11 05:44:00;;;;;;;6.00;4.00;;;;;;;;;;5111187;28;20024;-71
2021/08/11 05:46:27;;;;;;;6.40;4.05;;;;;;;;;;5109723;28;20024;-73
2021/08/11 05:48:53;;;;;;;8.18;4.40;;;;;;;;;;5111380;28;20023;-73
2021/08/11 05:51:19;;;;;;;9.68;4.60;;;;;;;;;;5109782;28;20418;-73
2021/08/11 05:53:45;;;;;;;9.40;5.03;;;;;;;;;;5110465;28;20358;-72
2021/08/11 05:56:11;;;;;;;10.45;6.18;;;;;;;;;;5110224;28;20403;-73
2021/08/11 05:58:38;;;;;;;10.30;5.63;;;;;;;;;;5111532;28;20024;-71
2021/08/11 06:01:04;;;;;;;7.93;4.82;;;;;;;;;;5110650;28;20506;-73
2021/08/11 06:03:30;;;;;;;9.55;5.20;;;;;;;;;;5111389;28;20035;-72
2021/08/11 06:05:56;;;;;;;7.97;4.28;;;;;;;;;;5110914;28;20020;-73
2021/08/11 06:08:22;;;;;;;7.28;4.32;;;;;;;;;;5109241;28;20023;-72
2021/08/11 06:10:49;;;;;;;11.23;4.38;;;;;;;;;;5109639;28;20032;-72
2021/08/11 06:13:15;;;;;;;10.07;4.82;;;;;;;;;;5110735;28;20028;-73
2021/08/11 06:15:41;;;;;;;7.70;4.75;;;;;;;;;;5109139;28;20108;-71
2021/08/11 06:18:08;;;;;;;7.80;4.57;;;;;;;;;;5110733;28;20024;-73
2021/08/11 06:20:34;;;;;;;9.07;4.85;;;;;;;;;;5110687;28;20133;-73
2021/08/11 06:23:01;;;;;;;13.23;5.47;;;;;;;;;;5110390;28;20044;-72
2021/08/11 06:25:27;;;;;;;7.40;4.45;;;;;;;;;;5110276;28;20055;-72
2021/08/11 06:27:53;;;;;;;12.50;5.38;;;;;;;;;;5110128;28;20432;-72
2021/08/11 06:30:19;;;;;;;11.93;5.43;;;;;;;;;;5110606;28;20095;-72
2021/08/11 06:32:45;;;;;;;10.02;4.55;;;;;;;;;;5110313;28;20020;-72
2021/08/11 06:35:12;;;;;;;8.52;4.40;;;;;;;;;;5109937;28;20124;-72
2021/08/11 06:37:49;;;;;;;10.20;4.63;;;;;;;;;;5110358;28;20081;-72
2021/08/11 06:40:16;;;;;;;8.75;4.70;;;;;;;;;;5110052;28;20056;-73
2021/08/11 06:42:42;;;;;;;8.35;4.30;;;;;;;;;;5110161;28;20095;-73
2021/08/11 06:45:09;;;;;;;10.23;4.32;;;;;;;;;;5110276;28;20472;-71
2021/08/11 06:47:36;;;;;;;9.63;4.65;;;;;;;;;;5110393;28;20085;-72
2021/08/11 06:50:03;;;;;;;10.65;4.88;;;;;;;;;;5109877;28;20026;-72
2021/08/11 06:52:33;;;;;;;7.80;4.28;;;;;;;;;;5099342;28;20377;-72
2021/08/11 06:55:00;;;;;;;8.98;4.45;;;;;;;;;;5096985;28;20120;-73
2021/08/11 06:57:26;;;;;;;8.65;4.47;;;;;;;;;;5096358;28;20128;-72
2021/08/11 06:59:52;;;;;;;9.65;4.88;;;;;;;;;;5096379;28;20111;-72
2021/08/11 07:02:19;;;;;;;6.80;3.45;;;;;;;;;;5096466;28;20040;-72
2021/08/11 07:04:45;;;;;;;7.05;4.07;;;;;;;;;;5094736;28;20054;-71
2021/08/11 07:07:11;;;;;;;9.45;4.50;;;;;;;;;;5096504;28;20095;-72
2021/08/11 07:09:37;;;;;;;9.35;4.72;;;;;;;;;;5095084;28;20035;-72
2021/08/11 07:12:04;;;;;;;9.05;3.85;;;;;;;;;;5095788;28;20017;-73
2021/08/11 07:14:31;;;;;;;6.75;3.75;;;;;;;;;;5094650;28;20472;-72
2021/08/11 07:16:57;;;;;;;5.88;4.00;;;;;;;;;;5097018;28;20051;-72
2021/08/11 07:19:23;;;;;;;9.75;4.32;;;;;;;;;;5116092;28;20055;-73
2021/08/11 07:21:49;;;;;;;7.35;4.10;;;;;;;;;;5116317;28;20024;-72
2021/08/11 07:24:15;;;;;;;6.55;3.70;;;;;;;;;;5114556;28;20023;-73
2021/08/11 07:26:42;;;;;;;11.90;4.57;;;;;;;;;;5114963;28;20030;-72
2021/08/11 07:29:08;;;;;;;9.25;3.95;;;;;;;;;;5116155;28;20047;-72
2021/08/11 07:31:34;;;;;;;6.72;4.32;;;;;;;;;;5115967;28;20024;-71
2021/08/11 07:34:00;;;;;;;7.38;4.05;;;;;;;;;;5115968;28;20537;-70
2021/08/11 07:36:27;;;;;;;7.13;4.32;;;;;;;;;;5115999;28;20027;-72
2021/08/11 07:38:53;;;;;;;8.27;4.70;;;;;;;;;;5115390;28;20015;-70
2021/08/11 07:41:19;;;;;;;9.02;4.63;;;;;;;;;;5115591;28;20047;-72
2021/08/11 07:43:45;;;;;;;9.88;4.88;;;;;;;;;;5113614;28;20027;-71
2021/08/11 07:46:11;;;;;;;10.57;4.80;;;;;;;;;;5101587;28;20403;-70
2021/08/11 07:48:38;;;;;;;5.80;3.72;;;;;;;;;;5092109;28;20031;-71
2021/08/11 07:51:04;;;;;;;7.53;4.15;;;;;;;;;;5092758;28;20024;-69
2021/08/11 07:53:31;;;;;;;7.10;3.70;;;;;;;;;;5092424;28;20392;-72
2021/08/11 07:55:58;;;;;;;8.10;4.22;;;;;;;;;;5094808;28;20128;-71
2021/08/11 07:58:25;;;;;;;12.30;4.90;;;;;;;;;;5094322;28;20020;-71
2021/08/11 08:00:52;;;;;;;6.20;3.90;;;;;;;;;;5090869;28;20028;-72
2021/08/11 08:03:19;;;;;;;8.45;4.05;;;;;;;;;;5091582;28;20021;-71
2021/08/11 08:05:45;;;;;;;7.13;3.60;;;;;;;;;;5094884;28;20032;-72
2021/08/11 08:08:12;;;;;;;7.43;4.40;;;;;;;;;;5093764;28;20480;-73
2021/08/11 08:10:38;;;;;;;7.18;4.20;;;;;;;;;;5094499;28;20055;-72
2021/08/11 08:13:04;;;;;;;6.85;3.63;;;;;;;;;;5094935;28;20028;-73
2021/08/11 08:15:30;;;;;;;8.43;4.18;;;;;;;;;;5094284;28;20103;-72
2021/08/11 08:17:57;;;;;;;7.75;3.78;;;;;;;;;;5094472;28;20016;-72
2021/08/11 08:20:23;;;;;;;9.65;3.95;;;;;;;;;;5094337;28;20496;-72
2021/08/11 08:22:50;;;;;;;8.65;3.92;;;;;;;;;;5094634;28;20048;-71
2021/08/11 08:25:21;;;;;;;9.30;4.13;;;;;;;;;;5094490;28;20024;-71
2021/08/11 08:27:49;;;;;;;7.38;4.10;;;;;;;;;;5094200;28;20022;-71
2021/08/11 08:30:16;;;;;;;12.70;4.20;;;;;;;;;;5094497;28;20027;-72
2021/08/11 08:32:43;;;;;;;7.03;3.70;;;;;;;;;;5094513;28;20027;-72
2021/08/11 08:35:10;;;;;;;6.30;4.00;;;;;;;;;;5093496;28;20076;-71
2021/08/11 08:37:37;;;;;;;6.95;3.67;;;;;;;;;;5090817;28;20020;-71
2021/08/11 08:40:11;;;;;;;8.88;4.22;;;;;;;;;;5093260;28;20048;-71
2021/08/11 08:42:38;;;;;;;11.65;4.38;;;;;;;;;;5091640;28;20020;-70
2021/08/11 08:45:05;;;;;;;7.05;4.20;;;;;;;;;;5091488;28;20024;-70
2021/08/11 08:47:32;;;;;;;9.07;4.20;;;;;;;;;;5093996;28;20396;-71
2021/08/11 08:50:03;;;;;;;8.63;4.38;;;;;;;;;;5093755;28;20027;-70
2021/08/11 08:52:31;;;;;;;8.02;4.38;;;;;;;;;;5092898;28;20032;-71
2021/08/11 08:54:58;;;;;;;8.18;4.45;;;;;;;;;;5092757;28;20546;-70
2021/08/11 08:57:24;;;;;;;7.75;4.10;;;;;;;;;;5093720;28;20035;-71
2021/08/11 08:59:51;;;;;;;8.25;4.40;;;;;;;;;;5088790;28;20027;-70
2021/08/11 09:02:17;;;;;;;14.63;4.60;;;;;;;;;;5091360;28;20385;-70
2021/08/11 09:04:43;;;;;;;7.53;4.25;;;;;;;;;;5093089;28;20024;-70
2021/08/11 09:07:13;;;;;;;11.27;4.63;;;;;;;;;;5092730;28;20032;-70
2021/08/11 09:09:40;;;;;;;8.45;4.38;;;;;;;;;;5093338;28;20050;-71
2021/08/11 09:12:13;;;;;;;8.95;4.53;;;;;;;;;;5093943;28;20417;-71
2021/08/11 09:14:42;;;;;;;10.93;4.53;;;;;;;;;;5093477;28;20016;-71
2021/08/11 09:17:08;;;;;;;8.07;4.45;;;;;;;;;;5093382;28;20056;-71
2021/08/11 09:19:53;;;;;;;7.55;4.43;;;;;;;;;;5093646;28;20530;-68
2021/08/11 09:22:19;;;;;;;9.43;4.75;;;;;;;;;;5092342;28;20028;-70
2021/08/11 09:24:45;;;;;;;11.88;5.50;;;;;;;;;;5093390;28;20098;-69
2021/08/11 09:27:23;;;;;;;7.78;4.85;;;;;;;;;;5089522;28;20411;-70
2021/08/11 09:30:08;;;;;;;10.07;4.75;;;;;;;;;;5093415;28;20023;-72
2021/08/11 09:32:53;;;;;;;9.05;3.92;;;;;;;;;;5091839;28;20021;-68
2021/08/11 09:35:39;;;;;;;12.73;6.03;;;;;;;;;;5113395;28;20476;-70
2021/08/11 09:38:07;;;;;;;8.85;5.70;;;;;;;;;;5111915;28;20032;-67
2021/08/11 09:40:35;;;;;;;9.45;5.75;;;;;;;;;;5113352;28;20441;-68
2021/08/11 09:43:05;;;;;;;8.07;5.30;;;;;;;;;;5112941;28;20020;-67
2021/08/11 09:45:47;;;;;;;8.02;5.32;;;;;;;;;;5107935;28;20035;-73
2021/08/11 09:48:14;;;;;;;8.55;5.60;;;;;;;;;;5089197;28;20017;-70
2021/08/11 09:50:44;;;;;;;9.32;5.05;;;;;;;;;;5093294;28;20453;-71
2021/08/11 09:53:11;;;;;;;11.13;5.32;;;;;;;;;;5093200;28;20019;-70
2021/08/11 09:55:53;;;;;;;9.68;5.25;;;;;;;;;;5091891;28;20013;-69
2021/08/11 09:58:19;;;;;;;;;;;;;;;;;;5093696;28;20020;-70
2021/08/11 10:00:46;;;;;;;8.02;4.65;;;;;;;;;;5091573;28;20409;-70
2021/08/11 10:03:12;;;;;;;8.25;4.75;;;;;;;;;;5093119;28;20020;-66
2021/08/11 10:05:38;;;;;;;8.35;5.60;;;;;;;;;;5092911;28;20020;-66
2021/08/11 10:08:05;;;;;;;10.23;4.70;;;;;;;;;;5092675;28;20024;-67
2021/08/11 10:10:44;;;;;;;7.95;5.05;;;;;;;;;;5092931;28;20418;-69
2021/08/11 10:13:10;;;;;;;10.85;5.22;;;;;;;;;;5092756;28;20028;-66
2021/08/11 10:15:37;;;;;;;11.07;4.50;;;;;;;;;;5092864;28;20472;-67
2021/08/11 10:18:03;;;;;;;7.70;5.03;;;;;;;;;;5092919;28;20024;-70
2021/08/11 10:20:29;;;;;;;15.15;5.60;;;;;;;;;;5092636;28;20470;-66
2021/08/11 10:22:56;;;;;;;10.05;5.82;;;;;;;;;;5091369;28;20024;-67
2021/08/11 10:25:22;;;;;;;6.72;4.40;;;;;;;;;;5091885;28;20492;-66
2021/08/11 10:27:49;;;;;;;11.75;4.95;;;;;;;;;;5095311;28;20024;-66
2021/08/11 10:30:15;;;;;;;7.85;4.35;;;;;;;;;;5096520;28;20059;-66
2021/08/11 10:32:42;;;;;;;7.72;4.50;;;;;;;;;;5096362;28;20028;-66
2021/08/11 10:35:09;;;;;;;10.30;4.18;;;;;;;;;;5096195;28;20071;-67
2021/08/11 10:37:35;;;;;;;10.75;4.45;;;;;;;;;;5096438;28;20024;-66
2021/08/11 10:40:02;;;;;;;7.35;4.00;;;;;;;;;;5096317;28;20036;-65
2021/08/11 10:42:29;;;;;;;7.53;4.15;;;;;;;;;;5095860;28;20035;-66
2021/08/11 10:45:00;;;;;;;9.68;4.00;;;;;;;;;;5096773;28;20025;-66
2021/08/11 10:47:31;;;;;;;10.60;4.30;;;;;;;;;;5094764;28;20035;-66
2021/08/11 10:49:59;;;;;;;7.95;4.35;;;;;;;;;;5095874;28;20020;-67
2021/08/11 10:52:25;;;;;;;6.63;4.07;;;;;;;;;;5095478;28;20035;-66
2021/08/11 10:54:55;;;;;;;9.13;4.32;;;;;;;;;;5096134;28;20465;-69
2021/08/11 10:57:37;;;;;;;8.57;4.50;;;;;;;;;;5094384;28;20024;-67
2021/08/11 11:00:13;;;;;;;10.55;4.65;;;;;;;;;;5095563;28;20081;-67
2021/08/11 11:02:43;;;;;;;9.10;4.40;;;;;;;;;;5091290;28;20031;-67
2021/08/11 11:05:32;;;;;;;7.40;4.18;;;;;;;;;;5095568;28;20408;-65
2021/08/11 11:08:14;;;;;;;8.43;3.70;;;;;;;;;;5098999;28;20060;-66
2021/08/11 11:10:43;;;;;;;11.20;5.80;;;;;;;;;;5094013;28;20024;-66
2021/08/11 11:13:39;;;;;;;8.77;4.35;;;;;;;;;;5095406;28;20067;-66
2021/08/11 11:16:08;;;;;;;7.47;4.03;;;;;;;;;;5082100;28;20036;-65
2021/08/11 11:18:34;;;;;;;8.57;3.85;;;;;;;;;;5095336;28;20035;-66
2021/08/11 11:21:01;;;;;;;8.30;4.18;;;;;;;;;;5095388;28;20515;-67
2021/08/11 11:23:34;;;;;;;10.25;4.55;;;;;;;;;;5094519;28;20031;-66
2021/08/11 11:26:00;;;;;;;6.88;3.88;;;;;;;;;;5095136;28;20107;-67
2021/08/11 11:28:45;;;;;;;6.35;3.78;;;;;;;;;;5095131;28;20027;-66
2021/08/11 11:31:30;;;;;;;9.20;4.53;;;;;;;;;;5093732;28;20051;-66
2021/08/11 11:34:15;;;;;;;8.38;4.47;;;;;;;;;;5095446;28;20012;-67
2021/08/11 11:36:42;;;;;;;7.22;4.05;;;;;;;;;;5092830;28;21040;-66
2021/08/11 11:39:11;;;;;;;10.82;4.80;;;;;;;;;;5114819;28;20020;-68
2021/08/11 11:41:37;;;;;;;6.93;4.30;;;;;;;;;;5114085;28;20027;-66
2021/08/11 11:44:23;;;;;;;8.90;4.45;;;;;;;;;;5115353;28;20043;-67
2021/08/11 11:46:49;;;;;;;6.55;3.70;;;;;;;;;;5114897;28;20440;-67
2021/08/11 11:49:16;;;;;;;7.80;3.92;;;;;;;;;;5115372;28;20031;-68
2021/08/11 11:51:43;;;;;;;7.65;3.58;;;;;;;;;;5115014;28;20020;-67
2021/08/11 11:54:10;;;;;;;8.43;4.30;;;;;;;;;;5113905;28;20020;-67
2021/08/11 11:56:36;;;;;;;8.57;4.60;;;;;;;;;;5114734;28;20027;-68
2021/08/11 11:59:07;;;;;;;8.10;4.03;;;;;;;;;;5114762;28;20094;-66
2021/08/11 12:01:36;;;;;;;9.57;4.63;;;;;;;;;;5113268;28;20035;-66
2021/08/11 12:04:03;;;;;;;5.97;3.45;;;;;;;;;;5112943;28;20428;-65
2021/08/11 12:06:41;;;;;;;7.18;3.85;;;;;;;;;;5114106;28;20156;-66
2021/08/11 12:09:07;;;;;;;6.35;3.08;;;;;;;;;;5099022;28;20020;-66
2021/08/11 12:11:35;;;;;;;12.00;4.68;;;;;;;;;;5094662;28;20024;-66
2021/08/11 12:14:01;;;;;;;8.77;3.55;;;;;;;;;;5094106;28;20047;-66
2021/08/11 12:16:38;;;;;;;9.52;3.60;;;;;;;;;;5094289;28;20027;-67
2021/08/11 12:19:17;;;;;;;7.10;3.83;;;;;;;;;;5093209;28;20166;-66
2021/08/11 12:21:44;;;;;;;9.75;3.92;;;;;;;;;;5092792;28;20146;-66
2021/08/11 12:24:11;;;;;;;7.55;3.53;;;;;;;;;;5094341;28;20024;-66
2021/08/11 12:26:38;;;;;;;7.22;3.83;;;;;;;;;;5092689;28;20043;-67
2021/08/11 12:29:14;;;;;;;7.95;3.88;;;;;;;;;;5094532;28;20027;-67
2021/08/11 12:31:41;;;;;;;5.90;2.97;;;;;;;;;;5094845;28;20016;-67
2021/08/11 12:34:09;;;;;;;7.63;3.80;;;;;;;;;;5094044;28;20032;-67
2021/08/11 12:36:38;;;;;;;7.53;3.08;;;;;;;;;;5094393;28;20024;-67
2021/08/11 12:39:07;;;;;;;6.75;3.50;;;;;;;;;;5094331;28;20027;-67
2021/08/11 12:41:34;;;;;;;11.80;3.47;;;;;;;;;;5094032;28;20404;-67
2021/08/11 12:44:01;;;;;;;6.53;3.45;;;;;;;;;;5094837;28;20024;-67
2021/08/11 12:46:43;;;;;;;6.32;3.10;;;;;;;;;;5092979;28;20111;-67
2021/08/11 12:49:09;;;;;;;;;;;;;;;;;;5093708;28;20032;-67
2021/08/11 12:51:35;;;;;;;7.72;3.60;;;;;;;;;;5094162;28;19969;-67
2021/08/11 12:54:05;;;;;;;8.73;3.00;;;;;;;;;;5092842;28;20107;-68
2021/08/11 12:56:32;;;;;;;8.90;3.55;;;;;;;;;;5093774;28;20506;-68
2021/08/11 12:59:05;;;;;;;7.40;3.35;;;;;;;;;;5093989;28;20052;-67
2021/08/11 13:01:33;;;;;;;7.00;3.40;;;;;;;;;;5093951;28;20042;-67
2021/08/11 13:04:00;;;;;;;12.55;3.95;;;;;;;;;;5093673;28;20161;-67
2021/08/11 13:06:36;;;;;;;4.78;3.10;;;;;;;;;;5093995;28;20080;-68
2021/08/11 13:09:02;;;;;;;8.45;3.72;;;;;;;;;;5093642;28;20069;-66
2021/08/11 13:12:01;;;;;;;8.40;3.22;;;;;;;;;;5093795;28;20020;-66
2021/08/11 13:14:47;;;;;;;6.95;3.58;;;;;;;;;;5060237;28;20032;-67
2021/08/11 13:17:14;;;;;;;7.00;3.42;;;;;;;;;;5093396;28;20639;-67
2021/08/11 13:19:41;;;;;;;9.05;3.63;;;;;;;;;;5093743;28;20545;-69
2021/08/11 13:22:07;;;;;;;6.50;3.30;;;;;;;;;;5093730;28;20028;-67
2021/08/11 13:24:33;;;;;;;10.25;3.40;;;;;;;;;;5093442;28;20515;-66
2021/08/11 13:27:00;;;;;;;7.03;3.58;;;;;;;;;;5093590;28;20032;-68
2021/08/11 13:29:31;;;;;;;9.48;3.75;;;;;;;;;;5093597;28;20024;-67
2021/08/11 13:31:58;;;;;;;8.70;3.85;;;;;;;;;;5093196;28;20091;-67
2021/08/11 13:34:26;;;;;;;9.98;3.65;;;;;;;;;;5093765;28;20118;-67
2021/08/11 13:36:52;;;;;;;6.82;3.58;;;;;;;;;;5093167;28;20103;-67
2021/08/11 13:39:18;;;;;;;9.75;4.05;;;;;;;;;;5093289;28;20028;-67
2021/08/11 13:41:44;;;;;;;10.95;4.20;;;;;;;;;;5093535;28;20040;-66
2021/08/11 13:44:11;;;;;;;13.73;5.70;;;;;;;;;;5093166;28;20474;-67
2021/08/11 13:46:39;;;;;;;10.38;4.95;;;;;;;;;;5093753;28;20039;-67
2021/08/11 13:49:05;;;;;;;14.73;5.57;;;;;;;;;;5093323;28;20094;-67
2021/08/11 13:51:31;;;;;;;8.68;5.43;;;;;;;;;;5092898;28;20035;-67
2021/08/11 13:53:58;;;;;;;13.25;5.88;;;;;;;;;;5093330;28;20099;-67
2021/08/11 13:56:24;;;;;;;12.02;7.07;;;;;;;;;;5092238;28;20406;-67
2021/08/11 13:58:51;;;;;;;14.27;6.68;;;;;;;;;;5091591;28;20062;-67
2021/08/11 14:01:17;;;;;;;13.43;7.03;;;;;;;;;;5093593;28;20028;-67
2021/08/11 14:03:43;;;;;;;13.23;7.43;;;;;;;;;;5097449;28;20024;-67
2021/08/11 14:06:09;;;;;;;13.88;6.43;;;;;;;;;;5097109;28;20103;-67
2021/08/11 14:08:35;;;;;;;11.95;5.68;;;;;;;;;;5097267;28;20444;-67
2021/08/11 14:11:02;;;;;;;9.45;5.18;;;;;;;;;;5097261;28;20036;-67
2021/08/11 14:13:28;;;;;;;10.82;5.78;;;;;;;;;;5095468;28;20464;-67
2021/08/11 14:15:54;;;;;;;10.27;5.35;;;;;;;;;;5097148;28;20032;-67
2021/08/11 14:18:20;;;;;;;14.18;5.53;;;;;;;;;;5097124;28;20016;-67
2021/08/11 14:20:47;;;;;;;12.20;5.10;;;;;;;;;;5096524;28;20111;-67
2021/08/11 14:23:13;;;;;;;11.38;5.00;;;;;;;;;;5097206;28;20024;-67
2021/08/11 14:25:39;;;;;;;13.38;6.07;;;;;;;;;;5095694;28;20073;-67
2021/08/11 14:28:05;;;;;;;12.25;5.13;;;;;;;;;;5096573;28;20020;-67
2021/08/11 14:30:32;;;;;;;11.02;5.70;;;;;;;;;;5097130;28;20036;-67
2021/08/11 14:32:58;;;;;;;14.13;5.45;;;;;;;;;;5096955;28;20081;-67
2021/08/11 14:35:24;;;;;;;7.93;4.80;;;;;;;;;;5096397;28;20415;-67
2021/08/11 14:37:50;;;;;;;12.57;5.25;;;;;;;;;;5096758;28;20021;-67
2021/08/11 14:40:16;;;;;;;14.05;5.45;;;;;;;;;;5095928;28;20496;-67
2021/08/11 14:42:43;;;;;;;11.23;5.43;;;;;;;;;;5096876;28;20024;-67
2021/08/11 14:45:09;;;;;;;13.02;5.93;;;;;;;;;;5096797;28;20028;-67
2021/08/11 14:47:35;;;;;;;18.48;5.75;;;;;;;;;;5096446;28;20069;-67
2021/08/11 14:50:01;;;;;;;14.77;5.57;;;;;;;;;;5096566;28;20028;-67
2021/08/11 14:52:28;;;;;;;9.38;5.22;;;;;;;;;;5095157;28;20484;-68
2021/08/11 14:54:54;;;;;;;8.38;4.32;;;;;;;;;;5096074;28;20024;-67
2021/08/11 14:57:20;;;;;;;10.05;4.80;;;;;;;;;;5096501;28;20024;-67
2021/08/11 14:59:46;;;;;;;10.38;4.43;;;;;;;;;;5096496;28;20031;-68
2021/08/11 15:02:12;;;;;;;10.85;4.03;;;;;;;;;;5096071;28;20028;-68
2021/08/11 15:04:39;;;;;;;10.70;3.60;;;;;;;;;;5096243;28;20095;-67
2021/08/11 15:07:05;;;;;;;8.52;3.50;;;;;;;;;;5096198;28;20035;-67